Terminal Aerodrome Forecast
Issued by NWS

Current Version | Previous Version | Text Only | Print | Product List | Glossary On
Versions: 1 2 3 4 5 6 7 8 9 10 11 12 13 14 15 16 17 18 19 20
411
FTUS46 KHNX 161736
TAFMCE
TAF
KMCE 161736Z 1618/1718 32003KT 1/4SM FG OVC002
     FM162000 33005KT 2SM HZ SCT100 BKN200
     FM162100 33008KT 5SM HZ SCT150 BKN250
     FM170800 VRB03KT 1/4SM FG OVC002=

USA.gov is the U.S. government's official web portal to all federal, state and local government web resources and services.